Airfield :
LOGIN :

Register | Disclaimer

   EN    FR    IT 

 










Legend :    VFR   Marginal VFR   IFR   Intensive IFR   Very Intensive IFR
Visi :
Ceiling :
>= 8 km
>= 3000ft
5 to 8 km
1000 to 3000 ft
1500m to 5 km
500 to 1000 ft
800 to 1500m
200 to 500 ft
< 800m
< 200 ft
Symbols :   Thunderstorms  Fog  Heavy snow  Heavy precipitations  Wind > 20 kt
SIGMETs :     Misc.  Thunderstorms  Icing  Turbulence  Mountain Waves  Volcanic Ashes






- Airport Elevation : 308 ft
- IATA code : POZ


EPPO - Poznan-Lawica

CURRENT METAR :
  • 210030Z 20011KT 9999 OVC048 06/02 Q1010

EXPIRED METARs :
  • 210000Z 19010KT CAVOK 06/02 Q1010
  • 202330Z 19011KT CAVOK 06/02 Q1011
  • 202300Z 18011KT CAVOK 05/01 Q1011
  • 202230Z 18010KT CAVOK 05/01 Q1012
  • 202200Z 19011KT CAVOK 06/01 Q1012

TAF TAF EPPO
Valid from the 21 at 00:00 until the 22 at 00:00 UTC


202330Z 2100/2124 18012KT 9999 BKN025
BECMG 2103/2106 28018G28KT
TEMPO 2103/2110 29022G38KT 4000 RA BKN014
PROB40
TEMPO 2103/2110 SHRA BKN008 BKN014CB
TEMPO 2113/2118 SHRA BKN020CB
BECMG 2116/2119 24010KT



MET'MAP, your aeronautical weather chart ! - Copyright ORBIFLY December 2007 - Disclaimer

ORBIFLY MET'MAP TEAM :

Programming & Development : Alexandra Zaïnal
Concept & original design : Baudouin d'Aumeries
Assistance for programming : Marc-Olivier Méhu
Technical & hardware support : Manuel Goepfert

Contact : metmap@orbifly.com




SOURCES & CREDITS :

   NOAA